M I D A S
Marine Information and Data Acquisition System
Tripno 369 of the Zeeleeuw from 2002-12-13 08:24:36 to 2002-12-13 14:47:19
Back to CruiseResearch ActivitiesStationsMapUnderway DataData graphs

EquipmentUnitsComment
TimeDGPSUTC
LatitudeDGPSDM.mWGS84
LongitudeDGPSDM.mWGS84
HeadingGyrodeg 
SOGDGPSknotsSpeed over ground
COGDGPSdegCourse over ground
DepthEcho soundermeters200 kHz
Missing or incorrect values are displayed as -999
Navigation data collected by the RV Zeeleeuw from 2002-12-13 08:24:36 to 2002-12-13 14:47:19
Time Latitude Longitude Heading SOG COG Depth
2002-12-13 08:25:39 51°11.106 2°44.607 249.7 13.4 246.6 12.4
2002-12-13 08:26:39 51°11.016 2°44.282 249.3 13.5 245.7 12.3
2002-12-13 08:27:38 51°10.929 2°43.96 249.8 13.5 246.6 12.1
2002-12-13 08:28:39 51°10.839 2°43.628 250 13.5 247.2 12
2002-12-13 08:29:39 51°10.748 2°43.3 250.3 13.5 246.7 11.9
2002-12-13 08:30:39 51°10.66 2°42.974 249.8 13.3 246.7 11.7
2002-12-13 08:31:39 51°10.57 2°42.651 249.5 13.3 246.3 11.5
2002-12-13 08:32:39 51°10.481 2°42.328 249.5 13.4 245.9 11.4
2002-12-13 08:33:39 51°10.392 2°42.005 250.3 13.3 246.6 11.4
2002-12-13 08:34:39 51°10.302 2°41.682 249.7 13.3 245.8 11.4
2002-12-13 08:35:39 51°10.212 2°41.36 249.2 13.3 245.5 11.4
2002-12-13 08:36:39 51°10.121 2°41.039 249.7 13.3 246 11.4
2002-12-13 08:37:39 51°10.031 2°40.717 249.7 13.3 246 11.5
2002-12-13 08:38:39 51°9.941 2°40.395 249.8 13.4 245.8 11.5
2002-12-13 08:39:39 51°9.851 2°40.076 249.5 13.3 245.9 11.5
2002-12-13 08:40:37 51°9.765 2°39.767 249.5 13.2 245.3 11.4
2002-12-13 08:41:39 51°9.672 2°39.435 249.8 13.3 245.9 11.5
2002-12-13 08:42:38 51°9.584 2°39.119 249.8 13.3 246.6 11.6
2002-12-13 08:43:39 51°9.494 2°38.79 249.7 13.4 246.5 11.7
2002-12-13 08:44:39 51°9.404 2°38.465 249.8 13.4 246.5 11.7
2002-12-13 08:45:39 51°9.315 2°38.137 250.2 13.5 246.6 11.7
2002-12-13 08:46:38 51°9.225 2°37.815 249.7 13.6 246.3 11.6
2002-12-13 08:47:39 51°9.132 2°37.481 249.5 13.5 246.1 11.3
2002-12-13 08:48:39 51°9.066 2°37.218 257 6.8 253.2 11.4
2002-12-13 08:49:39 51°9.069 2°37.164 306.2 0.8 312.9 11.5
2002-12-13 08:50:39 51°9.082 2°37.153 324.8 0.9 336.4 11.6
2002-12-13 08:51:39 51°9.096 2°37.145 333.8 0.9 340.8 11.7
2002-12-13 08:52:39 51°9.11 2°37.139 340.8 0.9 344.4 11.8
2002-12-13 08:53:39 51°9.123 2°37.136 346.8 0.8 349.1 11.9
2002-12-13 08:54:39 51°9.136 2°37.133 352 0.8 352.8 12
2002-12-13 08:55:39 51°9.149 2°37.133 358 0.7 359.9 12.1
2002-12-13 08:56:39 51°9.159 2°37.133 4.8 0.8 358.5 12.2
2002-12-13 08:57:39 51°9.177 2°37.136 12.7 1.3 8.3 12.4
2002-12-13 08:58:39 51°9.201 2°37.145 23.2 1.5 16.8 12.6
2002-12-13 08:59:39 51°9.224 2°37.16 30.2 1.5 22.3 12.8
2002-12-13 09:00:39 51°9.252 2°37.207 77.3 4 65.1 13
2002-12-13 09:01:39 51°9.228 2°37.297 159.2 4 146.9 12.3
2002-12-13 09:02:39 51°9.158 2°37.288 205.3 4.6 198.4 11.8
2002-12-13 09:03:39 51°9.102 2°37.242 226.5 2.5 217.2 11.5
2002-12-13 09:04:39 51°9.1 2°37.236 253.2 0.2 265.7 11.5
2002-12-13 09:05:39 51°9.103 2°37.226 254.5 0.5 283 11.5
2002-12-13 09:06:39 51°9.103 2°37.216 249.2 0.4 280.7 11.5
2002-12-13 09:07:39 51°9.108 2°37.212 243.8 0.4 353.2 11.5
2002-12-13 09:08:39 51°9.114 2°37.215 241.8 0.4 13.4 11.6
2002-12-13 09:09:39 51°9.12 2°37.217 237.5 0.2 4.1 11.6
2002-12-13 09:10:39 51°9.122 2°37.213 222.2 0.2 301.4 11.6
2002-12-13 09:11:39 51°9.121 2°37.209 207.3 0.2 241.3 11.6
2002-12-13 09:12:39 51°9.119 2°37.207 195.2 0.2 207 11.5
2002-12-13 09:13:39 51°9.113 2°37.205 187.5 0.4 187.5 11.5
2002-12-13 09:14:39 51°9.093 2°37.199 204.2 2.3 198.9 11.3
2002-12-13 09:15:39 51°9.06 2°37.147 244.7 2.7 240.8 11
2002-12-13 09:16:39 51°9.051 2°37.084 271.5 2.3 269.6 11.1
2002-12-13 09:17:37 51°9.061 2°37.031 298 2.2 298.6 11.2
2002-12-13 09:18:39 51°9.085 2°36.989 324.2 2.1 324.3 11.5
2002-12-13 09:19:39 51°9.116 2°36.969 347.8 2 345.7 11.9
2002-12-13 09:20:39 51°9.15 2°36.968 11 2 7.6 12.4
2002-12-13 09:21:38 51°9.183 2°36.984 33.2 2.1 24.7 12.7
2002-12-13 09:22:39 51°9.211 2°37.017 54.5 2 43.8 13
2002-12-13 09:23:39 51°9.231 2°37.059 75.2 2 60.8 13
2002-12-13 09:24:39 51°9.242 2°37.106 96.3 1.8 76.4 13
2002-12-13 09:25:39 51°9.254 2°37.178 69 4.4 64.3 12.9
2002-12-13 09:26:39 51°9.348 2°37.223 345.2 7 346.5 13.8
2002-12-13 09:27:39 51°9.377 2°37.082 252.8 6.6 253 14.7
2002-12-13 09:28:37 51°9.305 2°36.863 245.2 12.5 241.8 14.8
2002-12-13 09:29:39 51°9.203 2°36.54 247.7 13.5 244.1 15
2002-12-13 09:30:39 51°9.104 2°36.217 247.3 13.6 243.9 15.2
2002-12-13 09:31:39 51°9.007 2°35.892 247.3 13.6 245.1 15.4
2002-12-13 09:32:39 51°8.909 2°35.566 247.2 13.6 244.2 15.7
2002-12-13 09:33:39 51°8.812 2°35.238 248 13.7 245 16
2002-12-13 09:34:39 51°8.716 2°34.912 248 13.7 245.2 16.3
2002-12-13 09:35:39 51°8.619 2°34.585 247.7 13.6 245 17.1
2002-12-13 09:36:39 51°8.523 2°34.262 247.7 13.6 245 17.5
2002-12-13 09:37:37 51°8.43 2°33.946 248.2 13.6 245.3 17.5
2002-12-13 09:38:39 51°8.331 2°33.609 247.7 13.7 245 17.3
2002-12-13 09:39:39 51°8.257 2°33.354 248.3 8.4 246.1 17.4
2002-12-13 09:40:39 51°8.207 2°33.183 246.8 6.6 244.3 17.5
2002-12-13 09:41:39 51°8.16 2°33.042 234.2 5.2 234 17.3
2002-12-13 09:42:39 51°8.1 2°33.001 194.7 3.6 190.3 17
2002-12-13 09:43:39 51°8.062 2°32.99 195.2 0.3 199.3 16.5
2002-12-13 09:44:39 51°8.059 2°32.984 205.3 0.4 234 16.6
2002-12-13 09:45:37 51°8.057 2°32.973 209.5 0.4 248.2 16.5
2002-12-13 09:46:39 51°8.055 2°32.962 205.3 0.4 246.8 16.7
2002-12-13 09:47:39 51°8.052 2°32.952 203.8 0.4 245.5 16.6
2002-12-13 09:48:39 51°8.05 2°32.943 204.5 0.4 244.3 16.5
2002-12-13 09:49:39 51°8.048 2°32.934 203.5 0.3 255.2 16.5
2002-12-13 09:50:39 51°8.047 2°32.925 202.8 0.4 256.6 16.2
2002-12-13 09:51:39 51°8.045 2°32.916 204.2 0.4 249.5 16.3
2002-12-13 09:52:39 51°8.043 2°32.906 206.5 0.4 242.7 16.5
2002-12-13 09:53:39 51°8.038 2°32.894 208.7 0.6 232.9 16.4
2002-12-13 09:54:39 51°8.032 2°32.88 211 0.7 232.4 16.3
2002-12-13 09:55:39 51°8.024 2°32.864 213 0.9 229.1 16
2002-12-13 09:56:39 51°8.015 2°32.847 216.3 0.9 232.4 16.3
2002-12-13 09:57:39 51°8.005 2°32.755 291.3 5.9 284.4 16.3
2002-12-13 09:58:39 51°8.097 2°32.718 31.8 6.5 22.6 17.3
2002-12-13 09:59:39 51°8.12 2°32.87 116.5 6.1 107.2 17
2002-12-13 10:00:39 51°8.074 2°32.954 135.3 3.5 131.4 16.6
2002-12-13 10:01:39 51°8.063 2°32.996 103.2 0.2 300.4 16.2
2002-12-13 10:02:40 51°8.066 2°32.992 97 0.3 327.9 -999
2002-12-13 10:03:39 51°8.069 2°32.989 96.8 0.2 342.6 7.9
2002-12-13 10:04:39 51°8.072 2°32.989 98.3 0.2 357.6 16.4
2002-12-13 10:05:39 51°8.076 2°32.99 99.3 0.3 20.3 16.6
2002-12-13 10:06:39 51°8.081 2°32.993 106.5 0.3 25.5 16.5
2002-12-13 10:07:39 51°8.084 2°32.997 119.3 0.2 54.5 16.6
2002-12-13 10:08:39 51°8.084 2°33.001 139.7 0.1 94.5 16.5
2002-12-13 10:09:39 51°8.081 2°32.999 164.5 0.2 211.2 16.5
2002-12-13 10:10:38 51°8.073 2°32.992 200 1.2 210.7 16.5
2002-12-13 10:11:39 51°8.056 2°32.955 244.7 2.1 246.7 16.3
2002-12-13 10:12:39 51°8.058 2°32.894 290.8 2.5 289.8 16.7
2002-12-13 10:13:39 51°8.086 2°32.845 337.3 2.5 330.4 16.8
2002-12-13 10:14:39 51°8.126 2°32.84 20.3 2.4 9.7 17.2
2002-12-13 10:15:39 51°8.16 2°32.872 59 2.3 45.7 17.4
2002-12-13 10:16:39 51°8.174 2°32.924 97 2.1 82.7 17.3
2002-12-13 10:17:39 51°8.163 2°32.972 143 1.9 132.7 17.1
2002-12-13 10:18:39 51°8.133 2°32.981 196.7 2.1 195.2 17
2002-12-13 10:19:39 51°8.109 2°32.938 244.8 2.4 243.7 16.8
2002-12-13 10:20:39 51°8.083 2°32.843 251.8 6.8 248.6 16.4
2002-12-13 10:21:39 51°8.047 2°32.554 263.2 13.3 260.6 17.3
2002-12-13 10:22:39 51°8.126 2°32.261 332.2 13.4 326.2 17.6
2002-12-13 10:23:39 51°8.307 2°32.033 336 14.1 330.4 19.7
2002-12-13 10:24:39 51°8.46 2°32.116 78.5 7.4 66.3 18.9
2002-12-13 10:25:39 51°8.48 2°32.264 83.3 4.8 73.4 19.6
2002-12-13 10:26:39 51°8.504 2°32.35 74.2 2.7 58.8 19.4
2002-12-13 10:27:37 51°8.525 2°32.38 59.8 1.3 24.4 19.3
2002-12-13 10:28:39 51°8.546 2°32.391 52.5 1.2 12.6 19.2
2002-12-13 10:29:39 51°8.564 2°32.397 54.2 1.1 8.7 19.1
2002-12-13 10:30:39 51°8.582 2°32.4 56 1 359.4 19.2
2002-12-13 10:31:39 51°8.597 2°32.398 57.3 0.9 353.2 19.2
2002-12-13 10:32:39 51°8.611 2°32.394 56.3 0.9 342.4 19.3
2002-12-13 10:33:39 51°8.625 2°32.387 50.8 0.8 337.5 19.3
2002-12-13 10:34:39 51°8.637 2°32.378 41.2 0.8 330.3 19.3
2002-12-13 10:35:39 51°8.649 2°32.367 31.8 0.8 326.8 19.4
2002-12-13 10:36:39 51°8.681 2°32.358 348.2 3.7 347.2 19.2
2002-12-13 10:37:39 51°8.701 2°32.254 246.8 5.2 249.3 18.8
2002-12-13 10:38:38 51°8.638 2°32.208 185 4.4 185.4 19
2002-12-13 10:39:39 51°8.561 2°32.22 173.8 4.9 169.7 19
2002-12-13 10:40:38 51°8.491 2°32.232 176 2.9 176.3 19.2
2002-12-13 10:41:37 51°8.487 2°32.224 169.2 0.4 269.3 19.3
2002-12-13 10:42:39 51°8.486 2°32.213 176.2 0.5 242 19
2002-12-13 10:43:39 51°8.481 2°32.203 168 0.5 218.3 18.8
2002-12-13 10:44:39 51°8.475 2°32.2 154.8 0.4 178 19.1
2002-12-13 10:45:39 51°8.472 2°32.201 138.3 0.3 149.4 19
2002-12-13 10:46:39 51°8.469 2°32.205 122 0.3 107.6 19.2
2002-12-13 10:47:39 51°8.469 2°32.216 115.8 0.4 82.6 19.4
2002-12-13 10:48:39 51°8.469 2°32.232 116 0.5 91.5 19.5
2002-12-13 10:49:39 51°8.469 2°32.247 111.3 0.6 88.3 19.4
2002-12-13 10:50:39 51°8.473 2°32.265 100.7 0.8 73.1 19.2
2002-12-13 10:51:39 51°8.478 2°32.284 99.2 0.9 68.1 19.2
2002-12-13 10:52:38 51°8.471 2°32.331 134 2.4 124.5 19.1
2002-12-13 10:53:39 51°8.427 2°32.352 187.3 3.2 187.6 19.2
2002-12-13 10:54:39 51°8.382 2°32.293 236.3 3.6 237.2 19.1
2002-12-13 10:55:39 51°8.368 2°32.209 266.2 3.2 266.3 19.4
2002-12-13 10:56:39 51°8.376 2°32.129 291.7 3 287.6 19.2
2002-12-13 10:57:39 51°8.403 2°32.067 322 2.8 314.7 18.8
2002-12-13 10:58:39 51°8.439 2°32.032 351.2 2.5 339.8 18.6
2002-12-13 10:59:39 51°8.478 2°32.023 19.2 2.2 1.8 18.7
2002-12-13 11:00:39 51°8.509 2°32.036 42.5 1.9 19.3 18.6
2002-12-13 11:01:39 51°8.535 2°32.061 61.3 1.8 36.5 18.4
2002-12-13 11:02:37 51°8.555 2°32.091 72.2 1.6 44.3 18.6
2002-12-13 11:03:37 51°8.57 2°32.122 90 1.4 58.3 18.4
2002-12-13 11:04:39 51°8.575 2°32.151 111.3 0.9 81.4 18.6
2002-12-13 11:05:39 51°8.573 2°32.175 127.8 0.9 109.1 18.7
2002-12-13 11:06:39 51°8.564 2°32.199 125.7 1 115.1 18.8
2002-12-13 11:07:37 51°8.56 2°32.227 104.3 1.2 91.7 18.7
2002-12-13 11:08:37 51°8.566 2°32.26 83.7 1.5 63.1 18.6
2002-12-13 11:09:37 51°8.582 2°32.296 76.5 1.8 54.7 18.8
2002-12-13 11:10:39 51°8.601 2°32.336 75.8 1.9 54.5 18.8
2002-12-13 11:11:38 51°8.619 2°32.377 76 1.9 55.6 18.9
2002-12-13 11:12:39 51°8.638 2°32.421 73.2 2 53.5 18.7
2002-12-13 11:13:39 51°8.66 2°32.463 70.2 2.1 51.6 18.5
2002-12-13 11:14:39 51°8.683 2°32.506 67.7 2.1 49.3 18.7
2002-12-13 11:15:39 51°8.708 2°32.547 64 2.1 45.3 18.8
2002-12-13 11:16:39 51°8.735 2°32.588 61.8 2.2 44.2 18.7
2002-12-13 11:17:39 51°8.763 2°32.627 59.8 2.3 41 18.8
2002-12-13 11:18:39 51°8.792 2°32.668 58.5 2.3 40.2 18.6
2002-12-13 11:19:37 51°8.821 2°32.706 58.7 2.3 40.4 18.7
2002-12-13 11:20:39 51°8.852 2°32.749 58 2.4 41.6 18.6
2002-12-13 11:21:39 51°8.883 2°32.793 57.3 2.5 41.4 18.6
2002-12-13 11:22:39 51°8.916 2°32.835 55.3 2.6 38.1 18.5
2002-12-13 11:23:39 51°8.949 2°32.876 55.2 2.5 38.4 18.2
2002-12-13 11:24:39 51°8.982 2°32.919 55.7 2.6 40.3 18
2002-12-13 11:25:39 51°9.015 2°32.962 54.8 2.6 39.5 17.8
2002-12-13 11:26:39 51°9.051 2°33.001 53.8 2.6 37 17.6
2002-12-13 11:27:39 51°9.085 2°33.041 54.8 2.4 37.1 17
2002-12-13 11:28:39 51°9.115 2°33.08 59.2 2.3 38.6 16.5
2002-12-13 11:29:39 51°9.144 2°33.116 58 2.2 37.7 16.5
2002-12-13 11:30:39 51°9.174 2°33.15 56 2.1 33.7 16.2
2002-12-13 11:31:39 51°9.201 2°33.176 58.3 1.6 31.3 15.9
2002-12-13 11:32:39 51°9.221 2°33.197 70.3 1.5 39.4 15.5
2002-12-13 11:33:39 51°9.233 2°33.231 100.3 1.4 77.4 15.7
2002-12-13 11:34:39 51°9.228 2°33.266 134.7 1.4 127.3 16
2002-12-13 11:35:39 51°9.207 2°33.275 181.5 1.5 194.5 16.3
2002-12-13 11:36:39 51°9.191 2°33.252 208.7 1.4 235.9 16.4
2002-12-13 11:37:39 51°9.182 2°33.221 217.2 1.3 248.9 16.4
2002-12-13 11:38:39 51°9.176 2°33.19 216.5 1.2 253.4 16.3
2002-12-13 11:39:39 51°9.172 2°33.163 217 1.1 256.4 16.2
2002-12-13 11:40:37 51°9.166 2°33.134 219.8 1.3 248.9 16
2002-12-13 11:41:39 51°9.154 2°33.09 229 2.1 244.1 16.1
2002-12-13 11:42:39 51°9.139 2°33.034 240.3 2.5 249.3 15.9
2002-12-13 11:43:39 51°9.127 2°32.965 253 2.9 257.6 15.5
2002-12-13 11:44:39 51°9.122 2°32.887 265.7 3.1 266.7 14.6
2002-12-13 11:45:39 51°9.116 2°32.81 251.2 2.6 260.3 13.4
2002-12-13 11:46:39 51°9.106 2°32.754 236.7 1.9 253.6 13.1
2002-12-13 11:47:39 51°9.098 2°32.713 228 1.5 250.9 12.7
2002-12-13 11:48:39 51°9.096 2°32.685 225.7 0.8 292.8 12.3
2002-12-13 11:49:39 51°9.087 2°32.658 195.7 1.7 216.4 12.2
2002-12-13 11:50:39 51°9.059 2°32.653 155.7 1.5 167.1 13.2
2002-12-13 11:51:39 51°9.043 2°32.686 109 1.4 102.6 14.5
2002-12-13 11:52:39 51°9.045 2°32.714 94.2 1 69.3 15
2002-12-13 11:53:39 51°9.054 2°32.735 84.8 1 51.1 14.9
2002-12-13 11:54:39 51°9.065 2°32.751 84 0.8 39.1 14.7
2002-12-13 11:55:39 51°9.076 2°32.765 81.5 0.8 31.8 14.6
2002-12-13 11:56:39 51°9.088 2°32.774 78.5 0.8 25.6 14.3
2002-12-13 11:57:37 51°9.099 2°32.778 76.3 0.8 6.3 13.8
2002-12-13 11:58:39 51°9.11 2°32.777 69.3 0.7 349.3 13.1
2002-12-13 11:59:39 51°9.121 2°32.773 64.5 0.7 343.9 12.8
2002-12-13 12:00:39 51°9.132 2°32.766 61.5 0.7 339.3 12.3
2002-12-13 12:01:39 51°9.143 2°32.759 58.2 0.8 332.8 11.9
2002-12-13 12:02:39 51°9.154 2°32.749 57.7 0.8 322.8 11.5
2002-12-13 12:03:39 51°9.164 2°32.737 60.2 0.9 314.5 11.1
2002-12-13 12:04:39 51°9.173 2°32.718 58.5 1 303.7 10.5
2002-12-13 12:05:39 51°9.181 2°32.695 47.7 1 301.6 9.9
2002-12-13 12:06:39 51°9.193 2°32.678 30.8 1 329 9.5
2002-12-13 12:07:39 51°9.212 2°32.666 19.2 1.5 341 9.2
2002-12-13 12:08:39 51°9.258 2°32.624 313.7 4.6 310 8.4
2002-12-13 12:09:39 51°9.248 2°32.505 225.2 4.8 230.7 8.1
2002-12-13 12:10:39 51°9.178 2°32.502 150 4.7 151.2 8.5
2002-12-13 12:11:39 51°9.124 2°32.605 113 4.6 110.2 10.5
2002-12-13 12:12:39 51°9.114 2°32.7 99.3 2.6 91.7 11.9
2002-12-13 12:13:39 51°9.122 2°32.723 98.3 0.4 354.9 12
2002-12-13 12:14:39 51°9.125 2°32.725 95.3 0.5 3.2 11.7
2002-12-13 12:15:39 51°9.136 2°32.727 100.3 0.5 22 11.6
2002-12-13 12:16:39 51°9.14 2°32.732 110.7 0.3 33.3 11.5
2002-12-13 12:17:39 51°9.144 2°32.734 120.7 0.1 359.6 11.3
2002-12-13 12:18:39 51°9.145 2°32.731 130.7 0.2 296.3 11.2
2002-12-13 12:19:39 51°9.144 2°32.724 143.7 0.3 231.4 11.2
2002-12-13 12:20:39 51°9.141 2°32.716 141.8 0.4 240 11.4
2002-12-13 12:21:39 51°9.137 2°32.709 132.3 0.3 233 11.1
2002-12-13 12:22:39 51°9.13 2°32.716 132.8 1 142.2 11.5
2002-12-13 12:23:39 51°9.111 2°32.736 142.8 1.6 148.7 12.4
2002-12-13 12:24:39 51°9.078 2°32.743 172.5 2.1 186.5 13.7
2002-12-13 12:25:39 51°9.043 2°32.728 179.2 2.1 198.1 15
2002-12-13 12:26:38 51°9.013 2°32.701 204.8 2.3 220.2 15.6
2002-12-13 12:27:39 51°8.988 2°32.646 240 2.7 246.5 15.6
2002-12-13 12:28:39 51°8.981 2°32.574 274.3 2.8 270.3 14.6
2002-12-13 12:29:39 51°8.993 2°32.505 311.3 2.7 297.3 12.7
2002-12-13 12:30:37 51°9.021 2°32.459 348.8 2.3 327.5 11
2002-12-13 12:31:39 51°9.055 2°32.442 23.2 2 354.4 9.9
2002-12-13 12:32:39 51°9.087 2°32.471 73.5 3 57.7 9.5
2002-12-13 12:33:39 51°9.089 2°32.57 119.2 4.4 114.7 10.8
2002-12-13 12:34:38 51°9.037 2°32.61 173.3 1.2 192.2 13
2002-12-13 12:35:40 51°9.034 2°32.589 205.3 1 267.4 -999
2002-12-13 12:36:42 51°9.035 2°32.56 233.8 1.1 274.8 12.1
2002-12-13 12:37:42 51°9.037 2°32.53 245.7 1.2 278 11.5
2002-12-13 12:38:41 51°9.026 2°32.484 214 2.6 229.5 11.3
2002-12-13 12:39:42 51°8.974 2°32.47 157.3 4.2 164.8 13.1
2002-12-13 12:40:43 51°8.938 2°32.626 81.5 8.3 78 16.9
2002-12-13 12:41:41 51°8.989 2°32.907 79.5 12.9 74.5 17.2
2002-12-13 12:42:41 51°9.048 2°33.241 79.5 13.1 74.7 17.1
2002-12-13 12:43:42 51°9.106 2°33.58 81.2 13 75.7 16.9
2002-12-13 12:44:41 51°9.156 2°33.911 82 13 76.7 17.5
2002-12-13 12:45:43 51°9.206 2°34.259 82 12.9 77.2 16.8
2002-12-13 12:46:41 51°9.251 2°34.578 81 12.9 76.3 17.1
2002-12-13 12:47:43 51°9.306 2°34.92 78.2 12.9 73.4 15.4
2002-12-13 12:48:41 51°9.365 2°35.237 78.5 13 73.4 16.1
2002-12-13 12:49:42 51°9.427 2°35.57 78.2 12.9 73.4 15.6
2002-12-13 12:50:42 51°9.498 2°35.894 74 13 68.8 15.6
2002-12-13 12:51:42 51°9.575 2°36.215 74.3 13 69.3 15.2
2002-12-13 12:52:42 51°9.651 2°36.536 74.8 12.9 69.7 15.9
2002-12-13 12:53:42 51°9.727 2°36.856 74.5 12.9 68.9 15
2002-12-13 12:54:41 51°9.801 2°37.173 74.5 13 69.5 15.5
2002-12-13 12:55:42 51°9.877 2°37.502 74.3 13 69.4 15.6
2002-12-13 12:56:42 51°9.953 2°37.825 74.7 13 69.6 15.6
2002-12-13 12:57:43 51°10.029 2°38.153 74.7 13 69.9 15.5
2002-12-13 12:58:42 51°10.103 2°38.471 75.3 13 70.2 14.7
2002-12-13 12:59:42 51°10.178 2°38.792 74.8 12.9 70 14.5
2002-12-13 13:00:41 51°10.25 2°39.108 74.7 12.9 70.1 14
2002-12-13 13:01:42 51°10.326 2°39.435 74.8 12.9 70 13.4
2002-12-13 13:02:43 51°10.404 2°39.728 63 9.1 59.2 13
2002-12-13 13:03:43 51°10.495 2°39.717 324.2 5.5 315.6 13.8
2002-12-13 13:04:42 51°10.502 2°39.591 253.3 5.2 253.5 14
2002-12-13 13:05:43 51°10.465 2°39.449 231.3 5.6 235.3 14.1
2002-12-13 13:06:41 51°10.392 2°39.373 207.5 5.9 211.2 14
2002-12-13 13:07:41 51°10.308 2°39.28 210.8 6 214.9 14.1
2002-12-13 13:08:42 51°10.244 2°39.175 238.7 5.2 237.5 14.1
2002-12-13 13:09:41 51°10.19 2°39.096 187.8 4.2 199.7 14.1
2002-12-13 13:10:42 51°10.141 2°39.147 96.2 3.6 98.7 13.6
2002-12-13 13:11:42 51°10.18 2°39.22 44.2 3.5 30.4 13.7
2002-12-13 13:12:42 51°10.242 2°39.186 318.2 5.3 308.9 14.1
2002-12-13 13:13:42 51°10.265 2°39.072 284.2 3.2 275.7 14.2
2002-12-13 13:14:41 51°10.264 2°39.017 266.5 2.1 266.1 14.3
2002-12-13 13:15:43 51°10.258 2°38.963 257.5 2 256.8 14.3
2002-12-13 13:16:42 51°10.251 2°38.914 252.5 1.9 255.3 14.5
2002-12-13 13:17:41 51°10.245 2°38.867 248 1.8 256.5 14.5
2002-12-13 13:18:41 51°10.237 2°38.82 244.2 1.8 254.7 14.5
2002-12-13 13:19:42 51°10.228 2°38.774 240.2 1.8 253.2 14.6
2002-12-13 13:20:41 51°10.219 2°38.731 238.3 1.8 250.8 14.8
2002-12-13 13:21:44 51°10.204 2°38.681 222.3 2.3 238.3 14.8
2002-12-13 13:22:43 51°10.173 2°38.638 188.5 2.6 209.1 14.8
2002-12-13 13:23:43 51°10.134 2°38.625 155.3 2.3 179.5 14.6
2002-12-13 13:24:43 51°10.102 2°38.644 117.8 1.8 138.7 14.1
2002-12-13 13:25:43 51°10.097 2°38.681 77 1.6 74 13.7
2002-12-13 13:26:43 51°10.115 2°38.709 49.8 1.6 29.8 14.3
2002-12-13 13:27:43 51°10.142 2°38.724 40.8 1.7 14.1 14.4
2002-12-13 13:28:43 51°10.171 2°38.729 36.8 1.8 2.5 14.6
2002-12-13 13:29:43 51°10.197 2°38.728 39.2 1.4 356.3 14.6
2002-12-13 13:30:44 51°10.218 2°38.725 42.3 1.2 352.1 14.9
2002-12-13 13:31:43 51°10.235 2°38.719 42.8 1.1 344.5 15.1
2002-12-13 13:32:41 51°10.251 2°38.711 43.8 0.9 339.6 15.1
2002-12-13 13:33:43 51°10.266 2°38.7 44.7 1 344.2 15.3
2002-12-13 13:34:43 51°10.297 2°38.726 58.5 2.8 39.3 15.2
2002-12-13 13:35:43 51°10.324 2°38.767 66.5 2.9 49.6 15.3
2002-12-13 13:36:43 51°10.383 2°38.982 77.8 11.9 71.7 14.3
2002-12-13 13:37:43 51°10.45 2°39.3 76.8 12.8 71.3 13.9
2002-12-13 13:38:43 51°10.517 2°39.623 78 12.8 72.5 13.6
2002-12-13 13:39:42 51°10.579 2°39.943 77.5 12.9 72.7 13
2002-12-13 13:40:43 51°10.644 2°40.273 76.7 12.8 72.2 12.5
2002-12-13 13:41:43 51°10.71 2°40.597 77 12.8 72.1 12
2002-12-13 13:42:43 51°10.775 2°40.92 79.5 12.8 73.6 11.5
2002-12-13 13:43:43 51°10.829 2°41.246 80.7 12.7 75.4 11.3
2002-12-13 13:44:43 51°10.884 2°41.572 80.2 12.7 74.9 11.4
2002-12-13 13:45:43 51°10.942 2°41.897 79.5 12.7 74.1 11.4
2002-12-13 13:46:43 51°10.999 2°42.223 79 12.8 73.4 11.5
2002-12-13 13:47:42 51°11.055 2°42.542 79.3 12.7 73.8 11.5
2002-12-13 13:48:44 51°11.115 2°42.876 79.8 12.7 74.1 11.6
2002-12-13 13:49:42 51°11.171 2°43.19 79.5 12.7 73.7 11.6
2002-12-13 13:50:43 51°11.229 2°43.517 79.3 12.7 73.9 11.6
2002-12-13 13:51:43 51°11.287 2°43.84 79.5 12.7 74 11.6
2002-12-13 13:52:45 51°11.348 2°44.176 79 12.7 73.5 11.6
2002-12-13 13:53:46 51°11.407 2°44.505 80 12.7 74.8 11.7
2002-12-13 13:54:45 51°11.464 2°44.823 79.3 12.7 73.8 11.6
2002-12-13 13:55:46 51°11.521 2°45.151 79.8 12.7 74.5 11.6
2002-12-13 13:56:45 51°11.578 2°45.468 77 12.6 71.8 11.6
2002-12-13 13:57:45 51°11.656 2°45.782 74.3 12.7 68.4 11.6
2002-12-13 13:58:46 51°11.734 2°46.1 74.5 12.7 68.7 11.7
2002-12-13 13:59:45 51°11.81 2°46.408 74.5 12.7 68.9 11.7
2002-12-13 14:00:45 51°11.887 2°46.723 74.7 12.7 68.8 11.5
2002-12-13 14:01:45 51°11.961 2°47.036 74.5 12.7 68.8 11.5
2002-12-13 14:02:45 51°12.036 2°47.348 74.5 12.7 69 11.3
2002-12-13 14:03:45 51°12.121 2°47.654 69.3 12.7 63.1 11.2
2002-12-13 14:04:45 51°12.215 2°47.956 69.8 12.7 64 11
2002-12-13 14:05:45 51°12.312 2°48.258 67.7 12.7 61.9 10.9
2002-12-13 14:06:45 51°12.413 2°48.554 67.7 12.7 61.8 10.9
2002-12-13 14:07:45 51°12.513 2°48.851 67.5 12.7 61.6 10.7
2002-12-13 14:08:45 51°12.614 2°49.147 67.3 12.7 61.6 10.6
2002-12-13 14:09:45 51°12.714 2°49.443 67 12.7 61.2 10.5
2002-12-13 14:10:45 51°12.815 2°49.738 68 12.7 61.7 10.4
2002-12-13 14:11:45 51°12.915 2°50.033 68 12.6 61.8 10.3
2002-12-13 14:12:45 51°13.015 2°50.329 67.5 12.7 61.4 10.1
2002-12-13 14:13:45 51°13.115 2°50.625 68 12.7 61.8 10.1
2002-12-13 14:14:46 51°13.217 2°50.927 67.2 12.7 61 9.9
2002-12-13 14:15:45 51°13.317 2°51.218 67.3 12.7 61.2 9.6
2002-12-13 14:16:45 51°13.418 2°51.513 67.5 12.7 61.3 9.6
2002-12-13 14:17:46 51°13.521 2°51.813 67.8 12.6 61.5 9.4
2002-12-13 14:18:45 51°13.618 2°52.103 68 12.6 62.1 9.3
2002-12-13 14:19:46 51°13.718 2°52.401 67.7 12.6 61.8 9.3
2002-12-13 14:20:45 51°13.815 2°52.69 68 12.6 62.3 9.1
2002-12-13 14:21:45 51°13.914 2°52.985 67.8 12.6 61.9 8.9
2002-12-13 14:22:45 51°14.012 2°53.28 67.3 12.6 61.8 8.5
2002-12-13 14:23:45 51°14.108 2°53.574 68 12.2 62.4 8.1
2002-12-13 14:24:45 51°14.205 2°53.862 64.3 12.3 58.7 8
2002-12-13 14:25:45 51°14.299 2°54.15 71.7 12.1 66.1 8
2002-12-13 14:26:45 51°14.37 2°54.444 78.8 11.7 73.1 8.4
2002-12-13 14:27:45 51°14.401 2°54.75 93.5 11.7 89.2 8.9
2002-12-13 14:28:45 51°14.364 2°55.053 114.2 11.6 109.4 8.9
2002-12-13 14:29:46 51°14.267 2°55.267 141.7 8.3 136 9.1
2002-12-13 14:30:45 51°14.176 2°55.371 155 6.2 149.5 8.9
2002-12-13 14:31:45 51°14.09 2°55.436 159.3 5.5 155.2 9.1
2002-12-13 14:32:45 51°14.007 2°55.497 159.7 5.6 155.8 9.5
2002-12-13 14:33:45 51°13.924 2°55.56 159.3 5.4 154.4 9.7
2002-12-13 14:34:45 51°13.847 2°55.62 158.2 4.9 153.3 9.4
2002-12-13 14:35:45 51°13.783 2°55.68 146 4.1 142.2 8.8
2002-12-13 14:36:45 51°13.738 2°55.758 132.5 3.9 128.1 9.2
2002-12-13 14:37:45 51°13.701 2°55.842 128.3 3.9 122.4 -999
2002-12-13 14:38:45 51°13.664 2°55.928 129.8 4 125.2 8.8
2002-12-13 14:39:45 51°13.629 2°56.015 129.7 3.7 123.5 6.8
2002-12-13 14:40:45 51°13.598 2°56.079 135.5 2.5 131.5 8
2002-12-13 14:41:45 51°13.591 2°56.089 140.7 0.1 162.9 -999
2002-12-13 14:42:45 51°13.582 2°56.111 112 0.7 115.8 8.6
2002-12-13 14:43:45 51°13.585 2°56.103 92.5 0.8 78.5 -999
2002-12-13 14:44:45 51°13.589 2°56.118 79.3 0.3 56.4 6.1
2002-12-13 14:45:45 51°13.59 2°56.123 97.5 0.4 87.1 6.2
2002-12-13 14:46:45 51°13.589 2°56.131 115.2 0.3 111.5 6.7